sensor_id;sensor_type;location;lat;lon;timestamp;temperature;humidity
44037;DHT22;62488;-37.670;-63.532;2023-02-28T00:00:37;24.60;45.10
44037;DHT22;62488;-37.670;-63.532;2023-02-28T00:03:05;24.50;45.00
44037;DHT22;62488;-37.670;-63.532;2023-02-28T00:05:32;24.40;45.50
44037;DHT22;62488;-37.670;-63.532;2023-02-28T00:07:59;24.30;45.20
44037;DHT22;62488;-37.670;-63.532;2023-02-28T00:10:29;24.20;45.60
44037;DHT22;62488;-37.670;-63.532;2023-02-28T00:13:01;24.00;45.90
44037;DHT22;62488;-37.670;-63.532;2023-02-28T00:15:29;23.90;46.30
44037;DHT22;62488;-37.670;-63.532;2023-02-28T00:17:56;23.80;46.70
44037;DHT22;62488;-37.670;-63.532;2023-02-28T00:20:23;23.70;47.10
44037;DHT22;62488;-37.670;-63.532;2023-02-28T00:22:52;23.50;47.50
44037;DHT22;62488;-37.670;-63.532;2023-02-28T00:25:22;23.40;48.20
44037;DHT22;62488;-37.670;-63.532;2023-02-28T00:27:49;23.20;48.70
44037;DHT22;62488;-37.670;-63.532;2023-02-28T00:30:19;23.10;49.00
44037;DHT22;62488;-37.670;-63.532;2023-02-28T00:32:46;23.00;49.20
44037;DHT22;62488;-37.670;-63.532;2023-02-28T00:35:13;22.90;49.30
44037;DHT22;62488;-37.670;-63.532;2023-02-28T00:37:41;22.80;49.50
44037;DHT22;62488;-37.670;-63.532;2023-02-28T00:40:09;22.70;49.70
44037;DHT22;62488;-37.670;-63.532;2023-02-28T00:42:36;22.70;49.90
44037;DHT22;62488;-37.670;-63.532;2023-02-28T00:45:04;22.60;50.00
44037;DHT22;62488;-37.670;-63.532;2023-02-28T00:47:31;22.50;50.00
44037;DHT22;62488;-37.670;-63.532;2023-02-28T00:49:59;22.50;50.40
44037;DHT22;62488;-37.670;-63.532;2023-02-28T00:52:26;22.40;50.70
44037;DHT22;62488;-37.670;-63.532;2023-02-28T00:54:53;22.30;51.20
44037;DHT22;62488;-37.670;-63.532;2023-02-28T00:57:20;22.20;51.50
44037;DHT22;62488;-37.670;-63.532;2023-02-28T00:59:47;22.20;51.80
44037;DHT22;62488;-37.670;-63.532;2023-02-28T01:02:15;22.10;52.10
44037;DHT22;62488;-37.670;-63.532;2023-02-28T01:04:42;22.00;52.30
44037;DHT22;62488;-37.670;-63.532;2023-02-28T01:07:09;21.90;52.40
44037;DHT22;62488;-37.670;-63.532;2023-02-28T01:09:36;21.90;52.80
44037;DHT22;62488;-37.670;-63.532;2023-02-28T01:12:03;21.80;52.90
44037;DHT22;62488;-37.670;-63.532;2023-02-28T01:14:31;21.80;52.40
44037;DHT22;62488;-37.670;-63.532;2023-02-28T01:16:58;21.70;52.20
44037;DHT22;62488;-37.670;-63.532;2023-02-28T01:19:25;21.70;52.10
44037;DHT22;62488;-37.670;-63.532;2023-02-28T01:21:52;21.70;52.00
44037;DHT22;62488;-37.670;-63.532;2023-02-28T01:24:19;21.60;51.80
44037;DHT22;62488;-37.670;-63.532;2023-02-28T01:26:46;21.60;51.50
44037;DHT22;62488;-37.670;-63.532;2023-02-28T01:29:14;21.60;51.10
44037;DHT22;62488;-37.670;-63.532;2023-02-28T01:31:41;21.50;51.20
44037;DHT22;62488;-37.670;-63.532;2023-02-28T01:34:08;21.50;51.40
44037;DHT22;62488;-37.670;-63.532;2023-02-28T01:36:35;21.40;51.60
44037;DHT22;62488;-37.670;-63.532;2023-02-28T01:39:03;21.40;52.10
44037;DHT22;62488;-37.670;-63.532;2023-02-28T01:41:32;21.40;51.70
44037;DHT22;62488;-37.670;-63.532;2023-02-28T01:44:05;21.30;51.90
44037;DHT22;62488;-37.670;-63.532;2023-02-28T01:46:34;21.30;52.30
44037;DHT22;62488;-37.670;-63.532;2023-02-28T01:49:14;21.20;52.30
44037;DHT22;62488;-37.670;-63.532;2023-02-28T01:51:44;21.10;51.80
44037;DHT22;62488;-37.670;-63.532;2023-02-28T01:54:16;21.20;51.70
44037;DHT22;62488;-37.670;-63.532;2023-02-28T01:57:00;21.20;52.10
44037;DHT22;62488;-37.670;-63.532;2023-02-28T01:59:37;21.20;51.80
44037;DHT22;62488;-37.670;-63.532;2023-02-28T02:02:11;21.30;51.80
44037;DHT22;62488;-37.670;-63.532;2023-02-28T02:04:46;21.30;51.60
44037;DHT22;62488;-37.670;-63.532;2023-02-28T02:07:16;21.30;51.30
44037;DHT22;62488;-37.670;-63.532;2023-02-28T02:09:44;21.30;51.40
44037;DHT22;62488;-37.670;-63.532;2023-02-28T02:12:34;21.20;51.70
44037;DHT22;62488;-37.670;-63.532;2023-02-28T02:17:44;21.10;52.00
44037;DHT22;62488;-37.670;-63.532;2023-02-28T02:23:55;21.10;52.10
44037;DHT22;62488;-37.670;-63.532;2023-02-28T02:27:06;21.00;52.60
44037;DHT22;62488;-37.670;-63.532;2023-02-28T02:29:38;20.80;53.20
44037;DHT22;62488;-37.670;-63.532;2023-02-28T02:35:01;20.60;54.10
44037;DHT22;62488;-37.670;-63.532;2023-02-28T02:37:51;20.70;54.00
44037;DHT22;62488;-37.670;-63.532;2023-02-28T02:40:21;20.80;54.00
44037;DHT22;62488;-37.670;-63.532;2023-02-28T02:46:34;20.70;54.90
44037;DHT22;62488;-37.670;-63.532;2023-02-28T02:49:06;20.60;55.50
44037;DHT22;62488;-37.670;-63.532;2023-02-28T02:51:35;20.60;55.60
44037;DHT22;62488;-37.670;-63.532;2023-02-28T02:54:10;20.40;56.00
44037;DHT22;62488;-37.670;-63.532;2023-02-28T02:56:39;20.40;56.20
44037;DHT22;62488;-37.670;-63.532;2023-02-28T02:59:11;20.30;56.50
44037;DHT22;62488;-37.670;-63.532;2023-02-28T03:01:41;20.20;56.60
44037;DHT22;62488;-37.670;-63.532;2023-02-28T03:04:16;20.30;56.70
44037;DHT22;62488;-37.670;-63.532;2023-02-28T03:06:43;20.30;56.70
44037;DHT22;62488;-37.670;-63.532;2023-02-28T03:09:10;20.10;57.20
44037;DHT22;62488;-37.670;-63.532;2023-02-28T03:11:38;19.90;57.40
44037;DHT22;62488;-37.670;-63.532;2023-02-28T03:29:50;19.70;57.60
44037;DHT22;62488;-37.670;-63.532;2023-02-28T03:32:35;19.60;58.30
44037;DHT22;62488;-37.670;-63.532;2023-02-28T03:35:23;19.60;58.60
44037;DHT22;62488;-37.670;-63.532;2023-02-28T03:37:58;19.50;59.10
44037;DHT22;62488;-37.670;-63.532;2023-02-28T03:40:31;19.40;59.30
44037;DHT22;62488;-37.670;-63.532;2023-02-28T03:43:06;19.30;59.70
44037;DHT22;62488;-37.670;-63.532;2023-02-28T03:45:37;19.30;59.80
44037;DHT22;62488;-37.670;-63.532;2023-02-28T03:50:40;19.30;59.80
44037;DHT22;62488;-37.670;-63.532;2023-02-28T03:55:39;19.30;60.20
44037;DHT22;62488;-37.670;-63.532;2023-02-28T04:01:55;19.40;60.80
44037;DHT22;62488;-37.670;-63.532;2023-02-28T04:04:16;19.50;61.30
44037;DHT22;62488;-37.670;-63.532;2023-02-28T04:06:43;19.50;61.70
44037;DHT22;62488;-37.670;-63.532;2023-02-28T04:09:13;19.60;61.70
44037;DHT22;62488;-37.670;-63.532;2023-02-28T04:11:52;19.50;62.00
44037;DHT22;62488;-37.670;-63.532;2023-02-28T04:14:19;19.50;62.10
44037;DHT22;62488;-37.670;-63.532;2023-02-28T04:16:46;19.40;62.50
44037;DHT22;62488;-37.670;-63.532;2023-02-28T04:19:14;19.40;62.90
44037;DHT22;62488;-37.670;-63.532;2023-02-28T04:21:52;19.30;63.00
44037;DHT22;62488;-37.670;-63.532;2023-02-28T04:24:24;19.30;63.30
44037;DHT22;62488;-37.670;-63.532;2023-02-28T04:26:54;19.20;63.20
44037;DHT22;62488;-37.670;-63.532;2023-02-28T04:29:27;19.10;63.50
44037;DHT22;62488;-37.670;-63.532;2023-02-28T04:31:55;19.10;63.90
44037;DHT22;62488;-37.670;-63.532;2023-02-28T04:34:26;19.00;64.30
44037;DHT22;62488;-37.670;-63.532;2023-02-28T04:36:54;18.90;64.70
44037;DHT22;62488;-37.670;-63.532;2023-02-28T04:39:22;18.90;65.00
44037;DHT22;62488;-37.670;-63.532;2023-02-28T04:41:49;18.80;65.00
44037;DHT22;62488;-37.670;-63.532;2023-02-28T04:44:17;18.80;65.10
44037;DHT22;62488;-37.670;-63.532;2023-02-28T04:46:44;18.80;64.90
44037;DHT22;62488;-37.670;-63.532;2023-02-28T04:49:12;18.90;64.60
44037;DHT22;62488;-37.670;-63.532;2023-02-28T04:51:39;18.90;64.60
44037;DHT22;62488;-37.670;-63.532;2023-02-28T04:54:07;18.90;64.70
44037;DHT22;62488;-37.670;-63.532;2023-02-28T04:56:34;18.90;64.80
44037;DHT22;62488;-37.670;-63.532;2023-02-28T04:59:01;18.90;65.20
44037;DHT22;62488;-37.670;-63.532;2023-02-28T05:01:29;18.90;65.40
44037;DHT22;62488;-37.670;-63.532;2023-02-28T05:03:59;18.80;65.50
44037;DHT22;62488;-37.670;-63.532;2023-02-28T05:06:28;18.60;66.10
44037;DHT22;62488;-37.670;-63.532;2023-02-28T05:08:56;18.60;66.50
44037;DHT22;62488;-37.670;-63.532;2023-02-28T05:11:30;18.50;67.00
44037;DHT22;62488;-37.670;-63.532;2023-02-28T05:14:05;18.40;67.20
44037;DHT22;62488;-37.670;-63.532;2023-02-28T05:16:32;18.40;67.40
44037;DHT22;62488;-37.670;-63.532;2023-02-28T05:18:59;18.30;67.50
44037;DHT22;62488;-37.670;-63.532;2023-02-28T05:22:13;18.30;67.90
44037;DHT22;62488;-37.670;-63.532;2023-02-28T05:24:21;18.30;67.80
44037;DHT22;62488;-37.670;-63.532;2023-02-28T05:26:53;18.30;68.00
44037;DHT22;62488;-37.670;-63.532;2023-02-28T05:29:20;18.30;67.90
44037;DHT22;62488;-37.670;-63.532;2023-02-28T05:31:48;18.30;68.00
44037;DHT22;62488;-37.670;-63.532;2023-02-28T05:34:15;18.30;68.00
44037;DHT22;62488;-37.670;-63.532;2023-02-28T05:36:42;18.40;68.30
44037;DHT22;62488;-37.670;-63.532;2023-02-28T05:39:09;18.40;68.70
44037;DHT22;62488;-37.670;-63.532;2023-02-28T05:41:40;18.50;68.20
44037;DHT22;62488;-37.670;-63.532;2023-02-28T05:44:07;18.40;68.20
44037;DHT22;62488;-37.670;-63.532;2023-02-28T05:46:34;18.40;68.40
44037;DHT22;62488;-37.670;-63.532;2023-02-28T05:49:02;18.50;68.50
44037;DHT22;62488;-37.670;-63.532;2023-02-28T05:51:29;18.40;68.70
44037;DHT22;62488;-37.670;-63.532;2023-02-28T05:53:59;18.40;69.10
44037;DHT22;62488;-37.670;-63.532;2023-02-28T05:56:27;18.40;69.00
44037;DHT22;62488;-37.670;-63.532;2023-02-28T05:58:54;18.50;69.00
44037;DHT22;62488;-37.670;-63.532;2023-02-28T06:01:32;18.50;69.10
44037;DHT22;62488;-37.670;-63.532;2023-02-28T06:04:00;18.50;69.50
44037;DHT22;62488;-37.670;-63.532;2023-02-28T06:06:28;18.50;69.90
44037;DHT22;62488;-37.670;-63.532;2023-02-28T06:09:00;18.50;70.10
44037;DHT22;62488;-37.670;-63.532;2023-02-28T06:11:27;18.30;70.50
44037;DHT22;62488;-37.670;-63.532;2023-02-28T06:13:56;18.20;71.10
44037;DHT22;62488;-37.670;-63.532;2023-02-28T06:16:24;18.20;71.40
44037;DHT22;62488;-37.670;-63.532;2023-02-28T06:18:51;18.10;71.70
44037;DHT22;62488;-37.670;-63.532;2023-02-28T06:21:22;18.20;71.80
44037;DHT22;62488;-37.670;-63.532;2023-02-28T06:23:49;18.20;71.90
44037;DHT22;62488;-37.670;-63.532;2023-02-28T06:26:16;18.40;71.50
44037;DHT22;62488;-37.670;-63.532;2023-02-28T06:28:43;18.40;71.30
44037;DHT22;62488;-37.670;-63.532;2023-02-28T06:31:13;18.50;71.40
44037;DHT22;62488;-37.670;-63.532;2023-02-28T06:33:40;18.50;71.50
44037;DHT22;62488;-37.670;-63.532;2023-02-28T06:36:09;18.50;71.70
44037;DHT22;62488;-37.670;-63.532;2023-02-28T06:38:39;18.40;72.10
44037;DHT22;62488;-37.670;-63.532;2023-02-28T06:41:06;18.50;72.20
44037;DHT22;62488;-37.670;-63.532;2023-02-28T06:43:39;18.50;71.90
44037;DHT22;62488;-37.670;-63.532;2023-02-28T06:46:08;18.60;71.70
44037;DHT22;62488;-37.670;-63.532;2023-02-28T06:48:36;18.70;71.60
44037;DHT22;62488;-37.670;-63.532;2023-02-28T06:51:08;18.80;71.50
44037;DHT22;62488;-37.670;-63.532;2023-02-28T06:53:36;18.80;71.60
44037;DHT22;62488;-37.670;-63.532;2023-02-28T06:56:08;18.70;72.00
44037;DHT22;62488;-37.670;-63.532;2023-02-28T06:58:36;18.60;72.20
44037;DHT22;62488;-37.670;-63.532;2023-02-28T07:01:04;18.60;72.40
44037;DHT22;62488;-37.670;-63.532;2023-02-28T07:03:31;18.60;72.30
44037;DHT22;62488;-37.670;-63.532;2023-02-28T07:05:58;18.70;72.30
44037;DHT22;62488;-37.670;-63.532;2023-02-28T07:08:26;18.70;72.70
44037;DHT22;62488;-37.670;-63.532;2023-02-28T07:10:57;18.70;72.80
44037;DHT22;62488;-37.670;-63.532;2023-02-28T07:13:25;18.60;73.00
44037;DHT22;62488;-37.670;-63.532;2023-02-28T07:18:22;18.50;73.80
44037;DHT22;62488;-37.670;-63.532;2023-02-28T07:20:50;18.40;74.10
44037;DHT22;62488;-37.670;-63.532;2023-02-28T07:23:17;18.40;74.60
44037;DHT22;62488;-37.670;-63.532;2023-02-28T07:25:45;18.40;74.60
44037;DHT22;62488;-37.670;-63.532;2023-02-28T07:28:12;18.30;74.70
44037;DHT22;62488;-37.670;-63.532;2023-02-28T07:30:40;18.30;74.60
44037;DHT22;62488;-37.670;-63.532;2023-02-28T07:33:08;18.40;74.40
44037;DHT22;62488;-37.670;-63.532;2023-02-28T07:35:35;18.40;74.40
44037;DHT22;62488;-37.670;-63.532;2023-02-28T07:38:02;18.40;74.50
44037;DHT22;62488;-37.670;-63.532;2023-02-28T07:40:29;18.50;74.40
44037;DHT22;62488;-37.670;-63.532;2023-02-28T07:42:57;18.40;74.60
44037;DHT22;62488;-37.670;-63.532;2023-02-28T07:45:25;18.50;74.60
44037;DHT22;62488;-37.670;-63.532;2023-02-28T07:47:52;18.50;74.70
44037;DHT22;62488;-37.670;-63.532;2023-02-28T07:50:19;18.50;75.00
44037;DHT22;62488;-37.670;-63.532;2023-02-28T07:52:46;18.50;75.10
44037;DHT22;62488;-37.670;-63.532;2023-02-28T07:55:13;18.50;75.40
44037;DHT22;62488;-37.670;-63.532;2023-02-28T07:57:41;18.50;75.70
44037;DHT22;62488;-37.670;-63.532;2023-02-28T08:00:10;18.40;75.80
44037;DHT22;62488;-37.670;-63.532;2023-02-28T08:02:39;18.40;76.20
44037;DHT22;62488;-37.670;-63.532;2023-02-28T08:05:06;18.40;76.60
44037;DHT22;62488;-37.670;-63.532;2023-02-28T08:07:33;18.30;77.00
44037;DHT22;62488;-37.670;-63.532;2023-02-28T08:10:00;18.20;77.40
44037;DHT22;62488;-37.670;-63.532;2023-02-28T08:12:27;18.10;77.90
44037;DHT22;62488;-37.670;-63.532;2023-02-28T08:14:54;18.10;78.20
44037;DHT22;62488;-37.670;-63.532;2023-02-28T08:17:21;18.00;78.80
44037;DHT22;62488;-37.670;-63.532;2023-02-28T08:19:48;18.00;79.00
44037;DHT22;62488;-37.670;-63.532;2023-02-28T08:22:15;18.00;79.10
44037;DHT22;62488;-37.670;-63.532;2023-02-28T08:24:43;18.10;79.00
44037;DHT22;62488;-37.670;-63.532;2023-02-28T08:27:10;18.00;79.30
44037;DHT22;62488;-37.670;-63.532;2023-02-28T08:29:40;18.00;79.50
44037;DHT22;62488;-37.670;-63.532;2023-02-28T08:32:07;18.00;79.60
44037;DHT22;62488;-37.670;-63.532;2023-02-28T08:34:34;18.00;79.70
44037;DHT22;62488;-37.670;-63.532;2023-02-28T08:37:01;18.00;79.90
44037;DHT22;62488;-37.670;-63.532;2023-02-28T08:39:28;18.00;80.10
44037;DHT22;62488;-37.670;-63.532;2023-02-28T08:41:55;18.10;80.40
44037;DHT22;62488;-37.670;-63.532;2023-02-28T08:44:22;18.10;80.70
44037;DHT22;62488;-37.670;-63.532;2023-02-28T08:46:49;18.20;80.60
44037;DHT22;62488;-37.670;-63.532;2023-02-28T08:49:16;18.30;80.60
44037;DHT22;62488;-37.670;-63.532;2023-02-28T08:51:43;18.30;80.50
44037;DHT22;62488;-37.670;-63.532;2023-02-28T08:54:10;18.30;80.60
44037;DHT22;62488;-37.670;-63.532;2023-02-28T08:56:42;18.40;80.60
44037;DHT22;62488;-37.670;-63.532;2023-02-28T08:59:09;18.40;80.60
44037;DHT22;62488;-37.670;-63.532;2023-02-28T09:01:36;18.50;80.50
44037;DHT22;62488;-37.670;-63.532;2023-02-28T09:04:05;18.60;80.40
44037;DHT22;62488;-37.670;-63.532;2023-02-28T09:06:34;18.70;79.90
44037;DHT22;62488;-37.670;-63.532;2023-02-28T09:09:02;18.70;79.80
44037;DHT22;62488;-37.670;-63.532;2023-02-28T09:11:32;18.80;79.70
44037;DHT22;62488;-37.670;-63.532;2023-02-28T09:13:59;18.90;79.80
44037;DHT22;62488;-37.670;-63.532;2023-02-28T09:16:27;18.80;79.90
44037;DHT22;62488;-37.670;-63.532;2023-02-28T09:18:54;18.80;79.90
44037;DHT22;62488;-37.670;-63.532;2023-02-28T09:21:20;19.00;80.00
44037;DHT22;62488;-37.670;-63.532;2023-02-28T09:23:49;19.00;80.10
44037;DHT22;62488;-37.670;-63.532;2023-02-28T09:26:27;19.00;80.10
44037;DHT22;62488;-37.670;-63.532;2023-02-28T09:28:55;19.00;80.10
44037;DHT22;62488;-37.670;-63.532;2023-02-28T09:31:27;19.00;80.40
44037;DHT22;62488;-37.670;-63.532;2023-02-28T09:33:56;19.00;80.40
44037;DHT22;62488;-37.670;-63.532;2023-02-28T09:36:25;19.00;80.70
44037;DHT22;62488;-37.670;-63.532;2023-02-28T09:38:52;18.90;80.90
44037;DHT22;62488;-37.670;-63.532;2023-02-28T09:41:24;19.00;81.10
44037;DHT22;62488;-37.670;-63.532;2023-02-28T09:43:57;18.90;81.40
44037;DHT22;62488;-37.670;-63.532;2023-02-28T09:48:53;18.80;82.00
44037;DHT22;62488;-37.670;-63.532;2023-02-28T09:51:55;18.80;82.30
44037;DHT22;62488;-37.670;-63.532;2023-02-28T09:54:26;18.80;82.60
44037;DHT22;62488;-37.670;-63.532;2023-02-28T10:05:19;18.90;83.00
44037;DHT22;62488;-37.670;-63.532;2023-02-28T10:08:13;18.80;83.20
44037;DHT22;62488;-37.670;-63.532;2023-02-28T10:10:49;18.80;83.40
44037;DHT22;62488;-37.670;-63.532;2023-02-28T10:16:12;18.80;83.60
44037;DHT22;62488;-37.670;-63.532;2023-02-28T10:18:54;18.80;83.50
44037;DHT22;62488;-37.670;-63.532;2023-02-28T10:21:28;18.90;83.40
44037;DHT22;62488;-37.670;-63.532;2023-02-28T10:24:04;19.00;83.30
44037;DHT22;62488;-37.670;-63.532;2023-02-28T10:26:37;19.00;83.10
44037;DHT22;62488;-37.670;-63.532;2023-02-28T10:29:07;19.00;83.10
44037;DHT22;62488;-37.670;-63.532;2023-02-28T10:31:34;19.10;83.30
44037;DHT22;62488;-37.670;-63.532;2023-02-28T10:34:02;19.20;83.30
44037;DHT22;62488;-37.670;-63.532;2023-02-28T10:36:30;19.30;82.90
44037;DHT22;62488;-37.670;-63.532;2023-02-28T10:38:57;19.40;82.90
44037;DHT22;62488;-37.670;-63.532;2023-02-28T10:41:31;19.50;82.70
44037;DHT22;62488;-37.670;-63.532;2023-02-28T10:44:23;19.70;82.60
44037;DHT22;62488;-37.670;-63.532;2023-02-28T10:46:51;19.80;82.10
44037;DHT22;62488;-37.670;-63.532;2023-02-28T10:49:26;19.90;82.00
44037;DHT22;62488;-37.670;-63.532;2023-02-28T10:52:00;20.10;81.70
44037;DHT22;62488;-37.670;-63.532;2023-02-28T10:54:34;20.30;81.60
44037;DHT22;62488;-37.670;-63.532;2023-02-28T10:59:40;20.50;80.80
44037;DHT22;62488;-37.670;-63.532;2023-02-28T11:02:39;20.60;81.10
44037;DHT22;62488;-37.670;-63.532;2023-02-28T11:07:54;20.90;80.40
44037;DHT22;62488;-37.670;-63.532;2023-02-28T11:10:25;21.00;80.70
44037;DHT22;62488;-37.670;-63.532;2023-02-28T11:12:56;21.10;80.60
44037;DHT22;62488;-37.670;-63.532;2023-02-28T11:15:30;21.30;80.80
44037;DHT22;62488;-37.670;-63.532;2023-02-28T11:20:39;21.50;80.60
44037;DHT22;62488;-37.670;-63.532;2023-02-28T11:23:12;21.70;80.30
44037;DHT22;62488;-37.670;-63.532;2023-02-28T11:25:40;21.80;80.20
44037;DHT22;62488;-37.670;-63.532;2023-02-28T11:28:34;21.90;80.40
44037;DHT22;62488;-37.670;-63.532;2023-02-28T11:33:53;22.30;80.20
44037;DHT22;62488;-37.670;-63.532;2023-02-28T11:38:52;22.80;81.10
44037;DHT22;62488;-37.670;-63.532;2023-02-28T11:41:38;23.00;79.80
44037;DHT22;62488;-37.670;-63.532;2023-02-28T11:44:23;23.30;79.00
44037;DHT22;62488;-37.670;-63.532;2023-02-28T11:47:25;23.20;79.50
44037;DHT22;62488;-37.670;-63.532;2023-02-28T11:52:54;23.60;79.90
44037;DHT22;62488;-37.670;-63.532;2023-02-28T11:55:32;23.80;79.00
44037;DHT22;62488;-37.670;-63.532;2023-02-28T11:58:22;24.10;79.00
44037;DHT22;62488;-37.670;-63.532;2023-02-28T12:06:50;24.70;78.80
44037;DHT22;62488;-37.670;-63.532;2023-02-28T12:20:49;25.40;77.10
44037;DHT22;62488;-37.670;-63.532;2023-02-28T12:28:48;26.00;76.70
44037;DHT22;62488;-37.670;-63.532;2023-02-28T12:31:54;26.20;76.20
44037;DHT22;62488;-37.670;-63.532;2023-02-28T12:34:27;26.70;75.20
44037;DHT22;62488;-37.670;-63.532;2023-02-28T12:36:56;26.80;75.60
44037;DHT22;62488;-37.670;-63.532;2023-02-28T12:39:36;27.20;74.90
44037;DHT22;62488;-37.670;-63.532;2023-02-28T12:42:33;27.70;74.60
44037;DHT22;62488;-37.670;-63.532;2023-02-28T12:45:17;27.50;73.80
44037;DHT22;62488;-37.670;-63.532;2023-02-28T12:47:47;27.70;73.80
44037;DHT22;62488;-37.670;-63.532;2023-02-28T12:50:15;27.70;74.10
44037;DHT22;62488;-37.670;-63.532;2023-02-28T12:58:26;28.20;72.90
44037;DHT22;62488;-37.670;-63.532;2023-02-28T13:01:21;28.20;72.30
44037;DHT22;62488;-37.670;-63.532;2023-02-28T13:04:18;28.50;72.20
44037;DHT22;62488;-37.670;-63.532;2023-02-28T13:09:26;28.60;71.60
44037;DHT22;62488;-37.670;-63.532;2023-02-28T13:11:56;29.10;71.20
44037;DHT22;62488;-37.670;-63.532;2023-02-28T13:20:00;29.20;71.90
44037;DHT22;62488;-37.670;-63.532;2023-02-28T13:22:42;29.20;70.40
44037;DHT22;62488;-37.670;-63.532;2023-02-28T13:27:51;29.30;70.70
44037;DHT22;62488;-37.670;-63.532;2023-02-28T13:38:54;29.80;69.70
44037;DHT22;62488;-37.670;-63.532;2023-02-28T13:44:03;29.80;69.60
44037;DHT22;62488;-37.670;-63.532;2023-02-28T13:46:32;30.00;69.60
44037;DHT22;62488;-37.670;-63.532;2023-02-28T13:49:27;30.20;69.70
44037;DHT22;62488;-37.670;-63.532;2023-02-28T14:06:28;31.40;68.50
44037;DHT22;62488;-37.670;-63.532;2023-02-28T14:08:59;31.50;67.30
44037;DHT22;62488;-37.670;-63.532;2023-02-28T14:11:30;31.30;67.60
44037;DHT22;62488;-37.670;-63.532;2023-02-28T14:13:58;31.10;67.80
44037;DHT22;62488;-37.670;-63.532;2023-02-28T14:17:02;31.80;67.30
44037;DHT22;62488;-37.670;-63.532;2023-02-28T14:19:25;31.60;67.20
44037;DHT22;62488;-37.670;-63.532;2023-02-28T14:36:23;31.90;67.00
44037;DHT22;62488;-37.670;-63.532;2023-02-28T14:39:05;32.00;66.50
44037;DHT22;62488;-37.670;-63.532;2023-02-28T14:41:35;32.30;67.00
44037;DHT22;62488;-37.670;-63.532;2023-02-28T14:44:19;32.30;66.60
44037;DHT22;62488;-37.670;-63.532;2023-02-28T14:46:54;32.50;66.00
44037;DHT22;62488;-37.670;-63.532;2023-02-28T14:54:37;32.60;67.20
44037;DHT22;62488;-37.670;-63.532;2023-02-28T14:57:04;32.40;66.50
44037;DHT22;62488;-37.670;-63.532;2023-02-28T14:59:33;32.90;65.60
44037;DHT22;62488;-37.670;-63.532;2023-02-28T15:02:22;33.30;65.00
44037;DHT22;62488;-37.670;-63.532;2023-02-28T15:05:00;33.40;64.40
44037;DHT22;62488;-37.670;-63.532;2023-02-28T15:07:27;33.40;64.90
44037;DHT22;62488;-37.670;-63.532;2023-02-28T15:12:36;33.90;63.70
44037;DHT22;62488;-37.670;-63.532;2023-02-28T15:15:04;34.20;63.60
44037;DHT22;62488;-37.670;-63.532;2023-02-28T15:17:32;34.00;62.90
44037;DHT22;62488;-37.670;-63.532;2023-02-28T15:19:59;34.40;61.60
44037;DHT22;62488;-37.670;-63.532;2023-02-28T15:22:35;34.80;59.70
44037;DHT22;62488;-37.670;-63.532;2023-02-28T15:25:04;34.80;60.50
44037;DHT22;62488;-37.670;-63.532;2023-02-28T15:27:33;35.00;60.40
44037;DHT22;62488;-37.670;-63.532;2023-02-28T15:30:08;35.10;59.50
44037;DHT22;62488;-37.670;-63.532;2023-02-28T15:32:41;34.80;59.20
44037;DHT22;62488;-37.670;-63.532;2023-02-28T15:35:29;34.80;59.50
44037;DHT22;62488;-37.670;-63.532;2023-02-28T15:38:22;34.90;59.50
44037;DHT22;62488;-37.670;-63.532;2023-02-28T15:40:53;35.30;59.20
44037;DHT22;62488;-37.670;-63.532;2023-02-28T15:46:07;35.50;58.20
44037;DHT22;62488;-37.670;-63.532;2023-02-28T15:48:55;35.90;56.40
44037;DHT22;62488;-37.670;-63.532;2023-02-28T15:51:33;35.70;55.70
44037;DHT22;62488;-37.670;-63.532;2023-02-28T15:54:07;35.80;57.00
44037;DHT22;62488;-37.670;-63.532;2023-02-28T15:56:43;36.50;57.00
44037;DHT22;62488;-37.670;-63.532;2023-02-28T15:59:26;36.20;56.80
44037;DHT22;62488;-37.670;-63.532;2023-02-28T16:04:36;36.50;56.30
44037;DHT22;62488;-37.670;-63.532;2023-02-28T16:07:05;36.30;55.90
44037;DHT22;62488;-37.670;-63.532;2023-02-28T16:09:33;36.70;55.10
44037;DHT22;62488;-37.670;-63.532;2023-02-28T16:12:02;37.20;54.10
44037;DHT22;62488;-37.670;-63.532;2023-02-28T16:14:29;37.20;52.80
44037;DHT22;62488;-37.670;-63.532;2023-02-28T16:17:06;37.10;53.40
44037;DHT22;62488;-37.670;-63.532;2023-02-28T16:19:35;37.80;52.20
44037;DHT22;62488;-37.670;-63.532;2023-02-28T16:22:01;38.20;52.00
44037;DHT22;62488;-37.670;-63.532;2023-02-28T16:24:28;38.00;51.30
44037;DHT22;62488;-37.670;-63.532;2023-02-28T16:26:56;38.20;50.80
44037;DHT22;62488;-37.670;-63.532;2023-02-28T16:29:35;37.80;50.90
44037;DHT22;62488;-37.670;-63.532;2023-02-28T16:35:10;38.10;50.10
44037;DHT22;62488;-37.670;-63.532;2023-02-28T16:37:37;38.80;49.30
44037;DHT22;62488;-37.670;-63.532;2023-02-28T16:40:04;39.30;48.60
44037;DHT22;62488;-37.670;-63.532;2023-02-28T16:42:32;39.80;48.70
44037;DHT22;62488;-37.670;-63.532;2023-02-28T16:44:59;40.40;47.80
44037;DHT22;62488;-37.670;-63.532;2023-02-28T16:47:26;40.50;46.70
44037;DHT22;62488;-37.670;-63.532;2023-02-28T16:49:53;40.60;47.40
44037;DHT22;62488;-37.670;-63.532;2023-02-28T16:52:20;40.30;46.80
44037;DHT22;62488;-37.670;-63.532;2023-02-28T16:54:47;40.20;47.00
44037;DHT22;62488;-37.670;-63.532;2023-02-28T16:57:22;40.30;46.20
44037;DHT22;62488;-37.670;-63.532;2023-02-28T16:59:49;40.20;46.80
44037;DHT22;62488;-37.670;-63.532;2023-02-28T17:02:20;40.50;46.50
44037;DHT22;62488;-37.670;-63.532;2023-02-28T17:04:47;41.30;45.30
44037;DHT22;62488;-37.670;-63.532;2023-02-28T17:07:15;40.90;45.00
44037;DHT22;62488;-37.670;-63.532;2023-02-28T17:09:43;40.40;45.30
44037;DHT22;62488;-37.670;-63.532;2023-02-28T17:12:10;40.80;45.40
44037;DHT22;62488;-37.670;-63.532;2023-02-28T17:14:38;41.30;44.60
44037;DHT22;62488;-37.670;-63.532;2023-02-28T17:17:06;41.60;44.80
44037;DHT22;62488;-37.670;-63.532;2023-02-28T17:19:33;41.40;44.00
44037;DHT22;62488;-37.670;-63.532;2023-02-28T17:22:03;41.00;44.60
44037;DHT22;62488;-37.670;-63.532;2023-02-28T17:24:30;41.70;44.00
44037;DHT22;62488;-37.670;-63.532;2023-02-28T17:26:57;41.70;43.70
44037;DHT22;62488;-37.670;-63.532;2023-02-28T17:29:24;41.50;43.80
44037;DHT22;62488;-37.670;-63.532;2023-02-28T17:31:51;41.60;43.50
44037;DHT22;62488;-37.670;-63.532;2023-02-28T17:34:18;41.40;42.80
44037;DHT22;62488;-37.670;-63.532;2023-02-28T17:36:47;41.90;42.80
44037;DHT22;62488;-37.670;-63.532;2023-02-28T17:39:16;42.60;42.30
44037;DHT22;62488;-37.670;-63.532;2023-02-28T17:41:53;42.10;43.40
44037;DHT22;62488;-37.670;-63.532;2023-02-28T17:44:22;41.60;43.20
44037;DHT22;62488;-37.670;-63.532;2023-02-28T17:46:50;41.20;44.20
44037;DHT22;62488;-37.670;-63.532;2023-02-28T17:49:18;41.20;44.20
44037;DHT22;62488;-37.670;-63.532;2023-02-28T17:51:48;41.10;44.20
44037;DHT22;62488;-37.670;-63.532;2023-02-28T17:54:16;40.90;43.60
44037;DHT22;62488;-37.670;-63.532;2023-02-28T17:56:44;40.50;44.10